METAR AND TAF INFORMATION
METAR FOR LTAL
ADDS - METARS form results

(1717 UTC 23 February 2019)
Data provider http://aviationweather.gov/metar/data/
 
Forecast for: LTAL (KASTAMONU , TR)
Text: TAF LTAL 231340Z 2315/2324 03008KT 9999 SCT030 BKN100
Forecast period: 1500 UTC 23 February 2019 to 0000 UTC 24 February 2019
Forecast type: FROM: standard forecast or significant change
Winds: from the NNE (30 degrees) at 9 MPH (8 knots; 4.1 m/s)
Visibility: 6 or more miles 10+ km)
Ceiling: 10000 feet AGL
Clouds: scattered clouds at 3000 feet AGL
broken clouds at 10000 feet AGL
Weather: no significant weather forecast for this period
Text: TEMPO 2315/2318 -RA BKN025 BKN080
Forecast period: 1500 to 1800 UTC 23 February 2019
Forecast type: TEMPORARY: The following changes expected for less than half the time period
Visibility: missing
Ceiling: 2500 feet AGL
Clouds: broken clouds at 2500 feet AGL
broken clouds at 8000 feet AGL
Weather: -RA  (light rain)

 AIRPORT MAP

 RUNWAY INFORMATION

 AIRPORT FREQUENCIES

 AIRPORT NEAR NAVIGATION AIDS



Copyright © 2011 - 2018 BirgenAir Virtual Airlines. All rights reserved. Developed by Goktug Unver